バクー の空港の天気 - METARとTAF

ヘイダル・アリエフ国際空港(バクー) ( UBBB / BAK ) - アゼルバイジャン バクー
飛行場実況気象(Metar)
観測時間09/23 14:30 AZT (09/23 10:30 UTC)
風向・風速北北西 9m/s
視程10km以上
天気現象
全天の4割程度の雲 雲底高度 520m
全天の8割程度の雲 雲底高度 3050m
気温27℃
湿度70%
気圧1016hPa
METARUBBB 231030Z 33017KT 9999 SCT017 BKN100 27/21 Q1016 R88/D NOSIG
過去の天気等 Google飛行場航空写真 Wunderground天気予報

過去48時間のMETAR

飛行場予報(TAF)
発表時間: 9/23 09:03 AZT (9/23 05:03 UTC)
予報対象時間: 23日10時 AZT ~ 24日10時 AZT
風向・風速北北西 9m/s 瞬間風速 14m/s
視程10km以上
全天の4割程度の雲 雲底高度 460m
全天の8割程度の雲 雲底高度 3,050m
23日13時 AZT ~ 23日19時 AZT に一時的に
風向・風速北北東 6m/s
全天の4割程度の雲 雲底高度 210m
TAF UBBB 230503Z 2306/2406 34018G28KT 9999 SCT015 BKN100 TX28/2310Z TN18/2402Z
TEMPO 2309/2315 02012KT SCT007